Time;durP1;ratioP1;P1;durP2;ratioP2;P2;SDS_P1;SDS_P2;PMS_P1;PMS_P2;Temp;Humidity;BMP_temperature;BMP_pressure;BME280_temperature;BME280_humidity;BME280_pressure;Samples;Min_cycle;Max_cycle;Signal;HPM_P1;HPM_P2
2021/11/15 04:30:47;;;;;;;13.67;9.00;;;;;;;12.17;55.71;99258.78;8154720;23;20289;-81
2021/11/15 04:34:09;;;;;;;11.43;8.80;;;;;;;12.83;54.35;99247.84;6893756;28;20265;-81
2021/11/15 04:37:31;;;;;;;11.47;8.97;;;;;;;13.24;53.10;99262.00;6890890;28;20208;-81
2021/11/15 04:40:52;;;;;;;15.93;9.03;;;;;;;13.19;53.28;99258.25;6905741;28;20235;-79
2021/11/15 04:44:14;;;;;;;12.93;9.93;;;;;;;12.81;54.20;99254.50;6917578;28;20223;-80
2021/11/15 04:47:37;;;;;;;12.37;9.00;;;;;;;13.54;52.27;99256.91;6917652;28;20212;-80
2021/11/15 04:50:59;;;;;;;13.13;9.13;;;;;;;13.05;53.82;99256.59;6920923;28;20255;-80
2021/11/15 04:54:20;;;;;;;12.97;9.23;;;;;;;12.92;54.22;99249.28;6921185;28;20207;-80
2021/11/15 04:57:42;;;;;;;14.80;10.37;;;;;;;13.01;54.06;99252.63;6923671;28;20300;-79
2021/11/15 05:01:04;;;;;;;12.40;9.17;;;;;;;13.27;53.70;99249.91;6918438;28;20317;-79
2021/11/15 05:04:27;;;;;;;16.13;9.97;;;;;;;13.38;53.03;99251.94;6920007;28;20241;-80
2021/11/15 05:07:53;;;;;;;14.13;9.50;;;;;;;13.51;52.78;99249.22;6921236;28;20208;-79
2021/11/15 05:11:14;;;;;;;13.53;9.80;;;;;;;13.25;53.79;99249.28;6920664;28;20254;-80
2021/11/15 05:14:36;;;;;;;14.27;9.47;;;;;;;13.37;52.99;99245.72;6917350;28;20243;-80
2021/11/15 05:17:58;;;;;;;12.93;8.67;;;;;;;13.38;53.31;99244.66;6920664;28;20338;-80
2021/11/15 05:21:21;;;;;;;17.63;9.90;;;;;;;13.09;53.74;99238.91;6920188;28;20249;-79
2021/11/15 05:24:42;;;;;;;13.23;10.10;;;;;;;13.18;53.70;99240.34;6919258;28;20200;-79
2021/11/15 05:28:04;;;;;;;12.97;8.93;;;;;;;12.54;54.68;99236.59;6920275;28;20249;-79
2021/11/15 05:31:27;;;;;;;11.87;8.73;;;;;;;13.14;53.41;99242.63;6920451;28;20231;-79
2021/11/15 05:34:50;;;;;;;13.17;9.67;;;;;;;13.22;53.64;99236.16;6919653;28;20568;-79
2021/11/15 05:38:12;;;;;;;13.30;9.60;;;;;;;13.18;52.98;99243.88;6920035;28;20210;-79
2021/11/15 05:41:34;;;;;;;12.73;9.77;;;;;;;12.72;53.79;99198.91;6919399;28;20322;-79
2021/11/15 05:44:56;;;;;;;10.77;8.17;;;;;;;12.74;54.15;99254.50;6919578;28;20682;-79
2021/11/15 05:48:17;;;;;;;12.57;9.27;;;;;;;12.71;53.87;99249.50;6919909;28;20685;-79
2021/11/15 05:51:39;;;;;;;11.80;9.13;;;;;;;12.68;53.92;99220.16;6919065;28;20227;-79
2021/11/15 05:55:02;;;;;;;12.57;9.13;;;;;;;13.07;53.41;99268.88;6918454;28;20248;-79
2021/11/15 05:58:23;;;;;;;14.57;9.87;;;;;;;12.80;53.41;99266.38;6918934;28;20207;-79
2021/11/15 06:01:45;;;;;;;13.37;9.63;;;;;;;13.07;53.61;99260.78;6919118;28;20255;-79
2021/11/15 06:05:08;;;;;;;14.27;8.63;;;;;;;13.18;53.10;99270.13;6918533;28;20235;-79
2021/11/15 06:08:29;;;;;;;12.93;8.63;;;;;;;13.22;53.00;99268.66;6919277;28;20200;-79
2021/11/15 06:11:52;;;;;;;12.63;8.60;;;;;;;12.88;53.88;99276.97;6919629;28;20220;-79
2021/11/15 06:15:16;;;;;;;16.77;10.73;;;;;;;12.54;54.78;99285.28;6918456;28;20235;-79
2021/11/15 06:18:38;;;;;;;14.97;9.93;;;;;;;12.78;53.82;99277.41;6918492;28;20713;-80
2021/11/15 06:22:00;;;;;;;15.07;10.03;;;;;;;12.89;53.81;99282.19;6917793;28;20605;-79
2021/11/15 06:25:23;;;;;;;14.23;10.77;;;;;;;12.48;55.14;99277.97;6918332;28;20708;-79
2021/11/15 06:28:48;;;;;;;15.63;10.37;;;;;;;12.52;55.30;99282.75;6899920;28;20652;-79
2021/11/15 06:32:10;;;;;;;16.70;11.17;;;;;;;12.64;54.81;99270.28;6902076;28;20317;-79
2021/11/15 06:35:32;;;;;;;15.90;10.30;;;;;;;12.93;54.07;99293.44;6918389;28;20234;-79
2021/11/15 06:38:56;;;;;;;15.73;10.77;;;;;;;13.12;53.71;99298.03;6918637;28;20215;-79
2021/11/15 06:42:19;;;;;;;14.80;10.33;;;;;;;13.27;53.52;99280.50;6918765;28;20231;-79
2021/11/15 06:45:42;;;;;;;17.60;10.70;;;;;;;13.27;53.61;99294.06;6918420;28;20299;-79
2021/11/15 06:49:04;;;;;;;16.70;10.57;;;;;;;12.79;53.99;99284.47;6917032;28;20297;-79
2021/11/15 06:52:25;;;;;;;16.80;10.83;;;;;;;13.31;53.27;99289.91;6918728;28;20238;-79
2021/11/15 06:55:47;;;;;;;13.53;10.57;;;;;;;13.20;53.09;99295.94;6917733;28;20423;-79
2021/11/15 06:59:09;;;;;;;13.93;10.23;;;;;;;12.43;55.33;99286.72;6918164;28;20360;-79
2021/11/15 07:02:32;;;;;;;17.70;11.10;;;;;;;12.29;55.35;99270.66;6917802;28;20219;-79
2021/11/15 07:05:53;;;;;;;18.40;10.27;;;;;;;12.76;54.65;99275.94;6917201;28;20200;-79
2021/11/15 07:09:17;;;;;;;17.27;11.57;;;;;;;12.92;54.68;99284.47;6918642;28;20223;-79
2021/11/15 07:12:40;;;;;;;16.27;10.17;;;;;;;13.00;53.65;99283.47;6918152;28;20231;-79
2021/11/15 07:16:02;;;;;;;14.97;10.50;;;;;;;12.91;54.53;99290.91;6918767;28;20239;-80
2021/11/15 07:19:25;;;;;;;15.07;9.70;;;;;;;12.93;56.12;99282.59;6917157;28;20219;-80
2021/11/15 07:22:47;;;;;;;13.67;10.23;;;;;;;12.86;54.94;99287.19;6920511;28;20234;-81
2021/11/15 07:26:09;;;;;;;17.70;10.77;;;;;;;12.74;54.78;99288.84;6920343;28;20207;-81
2021/11/15 07:29:31;;;;;;;15.67;10.57;;;;;;;12.91;54.36;99265.72;6919567;28;20211;-80
2021/11/15 07:32:53;;;;;;;14.97;10.53;;;;;;;12.22;55.94;99259.00;6920142;28;20246;-81
2021/11/15 07:36:16;;;;;;;15.77;9.97;;;;;;;12.83;55.40;99282.19;6920516;28;20228;-81
2021/11/15 07:39:42;;;;;;;17.23;10.13;;;;;;;13.23;54.14;99292.00;6920995;28;20325;-81
2021/11/15 07:43:04;;;;;;;16.90;10.07;;;;;;;13.29;53.86;99289.25;6920939;28;20281;-81
2021/11/15 07:46:25;;;;;;;16.07;9.83;;;;;;;13.42;53.06;99289.25;6919873;28;20203;-81
2021/11/15 07:49:47;;;;;;;17.27;11.57;;;;;;;13.05;53.92;99310.75;6920813;28;20207;-81
2021/11/15 07:53:10;;;;;;;15.40;10.30;;;;;;;13.04;54.34;99309.91;6920823;28;20235;-81
2021/11/15 07:56:31;;;;;;;14.67;10.93;;;;;;;13.39;53.40;99313.22;6920601;28;20206;-80
2021/11/15 07:59:53;;;;;;;14.87;10.50;;;;;;;13.37;53.55;99308.00;6920489;28;20660;-81
2021/11/15 08:03:15;;;;;;;16.80;11.33;;;;;;;12.53;54.42;99297.97;6920932;28;20738;-81
2021/11/15 08:06:36;;;;;;;15.97;11.00;;;;;;;12.43;55.49;99288.56;6919911;28;20210;-80
2021/11/15 08:09:59;;;;;;;14.07;9.43;;;;;;;12.40;55.60;99327.69;6920572;28;20215;-82
2021/11/15 08:13:21;;;;;;;16.80;11.17;;;;;;;11.41;59.30;99330.09;6919834;28;20234;-80
2021/11/15 08:16:43;;;;;;;15.47;10.10;;;;;;;11.78;57.22;99273.00;6919590;28;20214;-81
2021/11/15 08:20:06;;;;;;;17.73;11.13;;;;;;;13.12;54.82;99314.28;6918240;28;20232;-81
2021/11/15 08:23:27;;;;;;;16.70;10.73;;;;;;;13.35;54.11;99325.50;6919543;28;20228;-81
2021/11/15 08:26:56;;;;;;;18.30;10.87;;;;;;;13.31;53.96;99324.25;6918100;28;20234;-80
2021/11/15 08:30:18;;;;;;;16.73;10.50;;;;;;;13.08;54.41;99321.13;6892708;28;20184;-80
2021/11/15 08:33:40;;;;;;;16.13;10.37;;;;;;;13.52;53.47;99307.78;6906745;28;20273;-80
2021/11/15 08:37:02;;;;;;;16.60;10.10;;;;;;;13.56;53.38;99328.81;6918828;28;20211;-80
2021/11/15 08:40:24;;;;;;;16.17;11.10;;;;;;;13.64;52.61;99323.16;6918942;28;20223;-81
2021/11/15 08:43:47;;;;;;;17.20;10.53;;;;;;;12.96;53.55;99312.81;6910675;28;20270;-80
2021/11/15 08:47:08;;;;;;;16.93;10.90;;;;;;;12.66;55.27;99297.16;6917600;28;20211;-80
2021/11/15 08:50:30;;;;;;;18.27;10.90;;;;;;;13.18;54.29;99313.44;6910537;28;20214;-80
2021/11/15 08:53:53;;;;;;;14.50;10.10;;;;;;;12.77;54.63;99305.50;6919666;28;20576;-80
2021/11/15 08:57:15;;;;;;;18.50;11.57;;;;;;;13.28;53.80;99330.09;6918507;28;20216;-81
2021/11/15 09:00:42;;;;;;;17.87;10.37;;;;;;;13.26;53.75;99324.91;6912120;28;20359;-80
2021/11/15 09:04:05;;;;;;;16.30;10.73;;;;;;;13.36;52.81;99311.75;6895763;28;20216;-81
2021/11/15 09:07:28;;;;;;;15.83;10.03;;;;;;;13.16;53.94;99323.66;6919073;28;20204;-81
2021/11/15 09:10:49;;;;;;;14.60;10.83;;;;;;;13.63;53.17;99332.34;6914031;28;20688;-80
2021/11/15 09:14:11;;;;;;;13.07;9.70;;;;;;;13.70;52.99;99335.03;6913178;28;20208;-81
2021/11/15 09:17:34;;;;;;;16.33;10.43;;;;;;;13.61;53.26;99328.16;6919947;28;20206;-81
2021/11/15 09:20:56;;;;;;;13.63;9.47;;;;;;;13.39;52.87;99316.75;6918544;28;20269;-80
2021/11/15 09:24:18;;;;;;;17.43;11.50;;;;;;;13.10;54.06;99325.31;6919304;28;20207;-80
2021/11/15 09:27:40;;;;;;;19.33;11.67;;;;;;;13.49;53.10;99333.41;6910932;28;20204;-80
2021/11/15 09:31:02;;;;;;;16.70;11.60;;;;;;;13.24;53.46;99323.44;6918808;28;20231;-80
2021/11/15 09:34:25;;;;;;;16.70;11.00;;;;;;;12.92;54.71;99319.66;6922505;28;20211;-80
2021/11/15 09:37:47;;;;;;;16.53;11.07;;;;;;;12.91;55.07;99309.88;6923522;28;20203;-81
2021/11/15 09:41:09;;;;;;;16.33;11.23;;;;;;;12.82;54.93;99323.81;6919838;28;20235;-80
2021/11/15 09:44:31;;;;;;;16.77;10.93;;;;;;;12.84;54.90;99313.59;6924300;28;20222;-80
2021/11/15 09:47:55;;;;;;;18.27;11.33;;;;;;;12.93;54.77;99326.72;6923736;28;20215;-81
2021/11/15 09:51:19;;;;;;;16.03;10.97;;;;;;;13.22;54.18;99320.94;6924447;28;20288;-80
2021/11/15 09:54:40;;;;;;;18.13;11.50;;;;;;;12.38;55.92;99301.88;6922785;28;20211;-80
2021/11/15 09:58:02;;;;;;;15.67;10.60;;;;;;;12.71;55.51;99330.69;6924743;28;20207;-80
2021/11/15 10:01:24;;;;;;;15.87;11.17;;;;;;;12.95;54.74;99307.56;6925026;28;20227;-81
2021/11/15 10:04:46;;;;;;;17.57;11.33;;;;;;;13.06;54.18;99318.66;6921991;28;20218;-81
2021/11/15 10:08:12;;;;;;;20.07;11.73;;;;;;;12.82;54.94;99313.00;6895998;28;20273;-82
2021/11/15 10:11:42;;;;;;;18.50;11.73;;;;;;;13.51;53.90;99320.47;6895338;28;20239;-81
2021/11/15 10:15:07;;;;;;;21.50;13.23;;;;;;;12.43;55.74;99319.16;6896326;28;20211;-80
2021/11/15 10:18:53;;;;;;;17.93;11.70;;;;;;;12.80;55.18;99307.78;6896484;28;20215;-80
2021/11/15 10:22:14;;;;;;;17.60;12.37;;;;;;;12.17;56.78;99310.16;6892325;28;20236;-80
2021/11/15 10:25:37;;;;;;;16.80;12.20;;;;;;;12.32;56.73;99294.56;6895157;28;20220;-81
2021/11/15 10:29:04;;;;;;;18.60;12.80;;;;;;;12.89;55.28;99303.00;6904961;28;20212;-81
2021/11/15 10:32:29;;;;;;;17.90;13.67;;;;;;;12.86;54.95;99304.25;6901983;28;20228;-83
2021/11/15 10:35:52;;;;;;;18.83;12.53;;;;;;;12.91;54.23;99279.25;6908244;28;20254;-80
2021/11/15 10:39:14;;;;;;;18.77;12.47;;;;;;;12.76;55.40;99297.59;6921406;28;20207;-77
2021/11/15 10:42:40;;;;;;;17.40;12.33;;;;;;;12.69;55.48;99286.75;6920302;28;20235;-78
2021/11/15 10:46:02;;;;;;;22.87;12.73;;;;;;;12.74;56.00;99280.72;6899090;23;20228;-70
2021/11/15 10:49:28;;;;;;;23.77;13.73;;;;;;;13.16;54.79;99288.47;6865543;28;20208;-72
2021/11/15 10:52:59;;;;;;;24.50;14.90;;;;;;;12.57;57.46;99263.22;6865645;28;20205;-67
2021/11/15 10:56:28;;;;;;;86.50;31.40;;;;;;;13.18;54.71;99240.34;6865076;28;20203;-73
2021/11/15 11:00:25;;;;;;;17.57;11.90;;;;;;;13.01;55.00;99277.84;6864315;28;20219;-67
2021/11/15 11:03:48;;;;;;;14.03;10.83;;;;;;;13.67;54.02;99289.38;6818646;28;20220;-71
2021/11/15 11:07:20;;;;;;;18.13;12.60;;;;;;;13.23;54.92;99289.28;6837138;29;20288;-74
2021/11/15 11:10:52;;;;;;;19.80;12.23;;;;;;;13.38;54.81;99292.56;6838729;28;20200;-70
2021/11/15 11:14:19;;;;;;;16.63;12.13;;;;;;;12.94;52.87;99222.00;6842975;28;20339;-73
2021/11/15 11:18:02;;;;;;;18.93;12.53;;;;;;;12.23;55.79;99225.53;6865001;28;20209;-72
2021/11/15 11:21:56;;;;;;;17.33;12.33;;;;;;;12.57;56.16;99261.34;6864406;28;20294;-70
2021/11/15 11:25:28;;;;;;;20.10;13.37;;;;;;;13.04;54.72;99271.19;6865239;28;20220;-75
2021/11/15 11:28:58;;;;;;;18.57;12.60;;;;;;;12.76;54.44;99271.34;6865632;28;20213;-72
2021/11/15 11:32:22;;;;;;;19.37;13.17;;;;;;;12.45;57.51;99275.69;6865175;28;20320;-71
2021/11/15 11:35:50;;;;;;;16.23;12.20;;;;;;;12.77;54.09;99247.84;6863972;28;20690;-71
2021/11/15 11:39:15;;;;;;;16.30;11.67;;;;;;;13.20;54.50;99268.03;6864692;28;20212;-73
2021/11/15 11:43:14;;;;;;;20.17;12.83;;;;;;;13.79;54.74;99274.97;6864505;28;20320;-72
2021/11/15 11:46:38;;;;;;;15.87;12.40;;;;;;;13.24;53.07;99262.00;6864272;28;20693;-73
2021/11/15 11:50:01;;;;;;;16.47;11.87;;;;;;;13.32;52.23;99259.06;6837436;28;20201;-71
2021/11/15 11:53:30;;;;;;;19.83;12.00;;;;;;;12.88;53.97;99258.03;6844849;28;20197;-69
2021/11/15 11:57:03;;;;;;;17.00;12.70;;;;;;;12.85;54.35;99256.56;6863048;28;20219;-78
2021/11/15 12:00:25;;;;;;;15.77;12.23;;;;;;;12.96;54.54;99253.28;6864669;28;20299;-65
2021/11/15 12:04:13;;;;;;;16.73;12.20;;;;;;;13.11;53.20;99261.19;6864245;28;20217;-71
2021/11/15 12:07:38;;;;;;;15.87;12.13;;;;;;;12.96;53.99;99257.84;6862397;28;20206;-76
2021/11/15 12:11:04;;;;;;;17.73;12.83;;;;;;;13.49;52.87;99264.84;6862338;28;20201;-70
2021/11/15 12:14:36;;;;;;;16.47;11.80;;;;;;;13.51;52.35;99254.66;6863424;28;20212;-74
2021/11/15 12:18:09;;;;;;;14.90;12.43;;;;;;;13.76;51.53;99234.72;6864103;28;20595;-72
2021/11/15 12:21:37;;;;;;;16.33;12.23;;;;;;;13.82;52.48;99249.31;6864175;28;20217;-73
2021/11/15 12:25:13;;;;;;;18.90;13.93;;;;;;;14.09;51.98;99246.25;6861454;28;20255;-70
2021/11/15 12:28:40;;;;;;;18.13;12.83;;;;;;;13.83;52.61;99242.84;6845110;28;20216;-72
2021/11/15 12:32:11;;;;;;;16.60;11.93;;;;;;;13.94;51.37;99236.75;6842859;28;20197;-71
2021/11/15 12:35:51;;;;;;;18.33;12.43;;;;;;;13.67;51.85;99246.88;6845218;28;20224;-67
2021/11/15 12:39:16;;;;;;;17.80;13.27;;;;;;;13.41;52.80;99244.25;6837754;28;20202;-70
2021/11/15 12:42:39;;;;;;;20.30;13.77;;;;;;;13.30;52.87;99235.94;6859094;28;20287;-71
2021/11/15 12:46:13;;;;;;;19.17;13.53;;;;;;;13.56;52.45;99230.44;6862445;28;20349;-67
2021/11/15 12:49:40;;;;;;;20.00;14.77;;;;;;;12.57;54.72;99245.13;6862155;28;20216;-68
2021/11/15 12:53:05;;;;;;;19.93;15.27;;;;;;;12.94;53.53;99239.09;6862421;28;20201;-66
2021/11/15 12:56:30;;;;;;;21.93;15.53;;;;;;;13.10;53.72;99243.28;6861952;28;20721;-70
2021/11/15 12:59:55;;;;;;;20.43;14.43;;;;;;;13.48;53.63;99219.84;6862933;28;20219;-72
2021/11/15 13:03:18;;;;;;;20.03;15.10;;;;;;;13.80;52.25;99221.59;6857144;28;20225;-71
2021/11/15 13:06:41;;;;;;;21.47;14.40;;;;;;;13.39;52.58;99226.56;6837270;28;20345;-71
2021/11/15 13:10:04;;;;;;;20.83;15.70;;;;;;;12.93;52.93;99204.94;6841694;28;20213;-71
2021/11/15 13:13:27;;;;;;;22.20;15.13;;;;;;;13.36;52.37;99172.78;6841449;28;20648;-71
2021/11/15 13:16:49;;;;;;;18.60;14.47;;;;;;;13.87;51.85;99208.84;6841274;28;20206;-71
2021/11/15 13:20:13;;;;;;;19.57;14.03;;;;;;;13.10;51.78;99191.84;6864479;28;20209;-71
2021/11/15 13:23:35;;;;;;;18.70;14.63;;;;;;;13.66;51.88;99209.13;6867924;28;20229;-71
2021/11/15 13:26:59;;;;;;;18.70;14.67;;;;;;;12.53;53.11;99151.91;6862073;28;20202;-71
2021/11/15 13:30:22;;;;;;;21.00;14.10;;;;;;;12.69;53.29;99200.16;6846061;28;20197;-71
2021/11/15 13:33:43;;;;;;;20.70;14.47;;;;;;;13.00;53.03;99189.56;6842101;28;20568;-70
2021/11/15 13:37:07;;;;;;;21.03;14.63;;;;;;;12.49;53.01;99120.91;6841391;28;20234;-75
2021/11/15 13:40:31;;;;;;;17.47;13.87;;;;;;;13.47;51.79;99181.09;6855991;28;20271;-68
2021/11/15 13:43:55;;;;;;;18.73;13.67;;;;;;;13.00;53.04;99213.94;6865417;28;20252;-68
2021/11/15 13:47:19;;;;;;;20.63;14.40;;;;;;;13.44;52.29;99224.84;6853165;28;20232;-68
2021/11/15 13:50:41;;;;;;;18.50;13.37;;;;;;;13.41;51.51;99170.28;6864835;28;20274;-68
2021/11/15 13:54:07;;;;;;;20.97;14.87;;;;;;;13.67;51.68;99224.34;6863191;28;20866;-68
2021/11/15 13:57:35;;;;;;;20.00;14.30;;;;;;;12.10;54.94;99225.50;6865366;28;20204;-69
2021/11/15 14:01:03;;;;;;;18.73;14.20;;;;;;;11.90;56.71;99228.16;6860758;28;20201;-69
2021/11/15 14:04:27;;;;;;;18.83;12.63;;;;;;;12.22;53.85;99107.63;6886006;28;20266;-68
2021/11/15 14:07:51;;;;;;;17.63;12.67;;;;;;;12.67;53.98;99188.72;6876906;28;20654;-68
2021/11/15 14:11:18;;;;;;;16.73;12.60;;;;;;;12.93;53.59;99217.66;6864911;28;20205;-68
2021/11/15 14:14:42;;;;;;;17.27;12.63;;;;;;;12.80;53.04;99215.78;6864222;28;20663;-68
2021/11/15 14:18:07;;;;;;;15.90;12.23;;;;;;;12.89;53.05;99221.81;6850077;28;20543;-68
2021/11/15 14:21:31;;;;;;;14.57;11.60;;;;;;;12.83;53.06;99223.50;6838555;28;20825;-68
2021/11/15 14:24:56;;;;;;;16.83;12.20;;;;;;;12.97;53.15;99229.72;6838762;28;20210;-67
2021/11/15 14:28:23;;;;;;;19.37;12.50;;;;;;;12.75;53.12;99220.16;6838905;28;20210;-69
2021/11/15 14:31:47;;;;;;;16.73;12.77;;;;;;;12.66;53.43;99218.69;6862550;28;20662;-69
2021/11/15 14:35:12;;;;;;;16.23;13.47;;;;;;;12.56;52.76;99215.59;6864859;28;20225;-69
2021/11/15 14:38:37;;;;;;;16.47;12.13;;;;;;;13.00;52.84;99216.63;6862244;28;20319;-69
2021/11/15 14:42:04;;;;;;;16.77;12.47;;;;;;;12.89;52.12;99183.91;6851705;28;20312;-69
2021/11/15 14:45:29;;;;;;;16.63;12.77;;;;;;;13.19;51.48;99210.34;6863070;28;20232;-71
2021/11/15 14:48:53;;;;;;;19.50;12.83;;;;;;;13.49;51.20;99218.78;6865244;28;20360;-69
2021/11/15 14:52:18;;;;;;;16.80;12.13;;;;;;;13.23;51.66;99227.00;6864913;28;20769;-70
2021/11/15 14:55:43;;;;;;;18.27;13.93;;;;;;;12.16;54.09;99222.81;6864354;28;20181;-72
2021/11/15 14:59:07;;;;;;;17.67;12.53;;;;;;;12.80;53.24;99225.78;6864754;28;20213;-72
2021/11/15 15:02:37;;;;;;;19.53;13.97;;;;;;;12.37;54.18;99243.44;6865404;28;20225;-77
2021/11/15 15:06:00;;;;;;;20.23;15.30;;;;;;;11.81;54.21;99215.03;6864205;28;20212;-74
2021/11/15 15:09:28;;;;;;;19.00;13.53;;;;;;;11.96;55.34;99221.09;6865321;28;20205;-73
2021/11/15 15:12:55;;;;;;;17.70;13.43;;;;;;;11.97;55.20;99226.28;6838656;28;20205;-74
2021/11/15 15:16:22;;;;;;;18.97;13.33;;;;;;;12.82;53.59;99216.41;6838211;29;20680;-68
2021/11/15 15:20:00;;;;;;;19.93;13.97;;;;;;;13.05;52.77;99229.53;6837543;28;20208;-67
2021/11/15 15:23:24;;;;;;;20.67;13.90;;;;;;;13.13;52.26;99213.91;6837011;28;20842;-66
2021/11/15 15:26:50;;;;;;;17.83;13.17;;;;;;;13.16;51.89;99231.59;6836399;28;20221;-68
2021/11/15 15:30:17;;;;;;;20.37;14.70;;;;;;;12.63;53.28;99219.13;6836037;28;20210;-71
2021/11/15 15:33:44;;;;;;;20.63;14.80;;;;;;;12.51;53.15;99220.78;6836870;28;20676;-68
2021/11/15 15:37:11;;;;;;;19.83;14.83;;;;;;;12.11;55.06;99224.47;6836261;28;20265;-67
2021/11/15 15:40:42;;;;;;;20.67;14.13;;;;;;;12.50;53.93;99219.09;6861761;28;20710;-68
2021/11/15 15:44:08;;;;;;;19.50;13.73;;;;;;;12.16;54.58;99216.56;6862812;28;20227;-68
2021/11/15 15:47:32;;;;;;;17.97;12.67;;;;;;;12.39;54.13;99208.91;6863043;28;20235;-69
2021/11/15 15:50:56;;;;;;;17.93;13.53;;;;;;;12.79;52.89;99207.84;6863324;28;20662;-69
2021/11/15 15:54:24;;;;;;;19.40;14.57;;;;;;;12.73;53.01;99219.53;6860044;28;20209;-71
2021/11/15 15:57:46;;;;;;;16.73;12.97;;;;;;;12.76;52.60;99221.81;6850551;28;20213;-71
2021/11/15 16:01:08;;;;;;;17.60;13.53;;;;;;;12.27;54.15;99222.19;6838256;28;20220;-71
2021/11/15 16:04:45;;;;;;;19.47;14.40;;;;;;;12.62;54.01;99233.69;6862488;28;20240;-71
2021/11/15 16:08:52;;;;;;;20.10;13.63;;;;;;;12.61;53.38;99219.31;6863437;28;20247;-70
2021/11/15 16:12:41;;;;;;;20.50;14.33;;;;;;;12.90;52.84;99231.59;6863151;28;20212;-74
2021/11/15 16:19:45;;;;;;;19.20;14.13;;;;;;;13.17;53.10;99244.09;6857062;28;20213;-72
2021/11/15 16:23:07;;;;;;;21.17;14.93;;;;;;;12.81;51.67;99192.25;6863233;28;20628;-76
2021/11/15 16:26:29;;;;;;;18.53;13.27;;;;;;;12.67;52.45;99161.69;6863801;28;20212;-76
2021/11/15 16:29:52;;;;;;;22.10;15.10;;;;;;;12.44;53.19;99219.91;6863257;28;20704;-77
2021/11/15 16:33:14;;;;;;;19.87;14.43;;;;;;;13.29;51.91;99237.78;6863822;28;20215;-70
2021/11/15 16:36:36;;;;;;;21.47;14.37;;;;;;;13.28;51.67;99246.16;6860974;28;20225;-71
2021/11/15 16:39:58;;;;;;;19.37;15.03;;;;;;;13.31;51.38;99256.56;6862681;28;20209;-71
2021/11/15 16:43:21;;;;;;;18.30;14.07;;;;;;;12.89;51.82;99195.59;6848137;28;20291;-72
2021/11/15 16:46:48;;;;;;;21.23;14.07;;;;;;;13.11;50.90;99218.69;6860862;28;20221;-71
2021/11/15 16:50:10;;;;;;;19.90;14.30;;;;;;;13.11;52.17;99262.00;6841108;28;20304;-68
2021/11/15 16:53:32;;;;;;;19.87;14.77;;;;;;;12.89;52.52;99251.56;6850470;28;20217;-68
2021/11/15 16:56:55;;;;;;;21.33;15.40;;;;;;;12.65;52.51;99258.47;6867174;28;20221;-67
2021/11/15 17:00:17;;;;;;;22.40;15.53;;;;;;;12.56;52.79;99254.28;6867439;28;20213;-67
2021/11/15 17:03:43;;;;;;;20.67;14.13;;;;;;;12.78;52.68;99252.19;6843733;28;20279;-69
2021/11/15 17:07:07;;;;;;;21.87;15.97;;;;;;;12.76;53.06;99259.69;6840423;28;20555;-68
2021/11/15 17:10:33;;;;;;;24.80;17.10;;;;;;;12.56;52.33;99165.00;6857607;28;20217;-68
2021/11/15 17:13:55;;;;;;;22.07;15.53;;;;;;;13.36;51.07;99254.88;6867540;28;20236;-68
2021/11/15 17:17:23;;;;;;;22.23;16.47;;;;;;;13.03;51.68;99237.00;6867237;28;20555;-68
2021/11/15 17:20:50;;;;;;;24.93;16.23;;;;;;;12.75;51.91;99185.00;6866960;28;20814;-68
2021/11/15 17:24:12;;;;;;;22.30;16.53;;;;;;;12.91;51.22;99196.19;6865182;28;20630;-67
2021/11/15 17:27:36;;;;;;;24.87;16.30;;;;;;;13.24;51.43;99243.03;6840379;28;20216;-69
2021/11/15 17:30:59;;;;;;;24.90;17.20;;;;;;;12.08;54.28;99247.31;6845479;28;20209;-68
2021/11/15 17:34:22;;;;;;;23.93;16.90;;;;;;;11.99;54.88;99253.13;6866107;28;20212;-69
2021/11/15 17:37:47;;;;;;;22.67;17.30;;;;;;;12.68;53.76;99263.44;6846589;28;20272;-68
2021/11/15 17:41:09;;;;;;;23.93;17.93;;;;;;;12.93;52.87;99233.88;6839812;28;20216;-68
2021/11/15 17:44:32;;;;;;;25.03;17.63;;;;;;;13.02;52.32;99219.97;6839685;28;20259;-69
2021/11/15 17:47:58;;;;;;;28.10;17.70;;;;;;;13.36;51.81;99246.75;6840205;28;20668;-68
2021/11/15 17:51:22;;;;;;;34.83;19.47;;;;;;;12.94;51.84;99176.00;6849926;28;20212;-68
2021/11/15 17:54:58;;;;;;;27.50;18.57;;;;;;;12.90;51.62;99199.94;6864583;28;20204;-69
2021/11/15 17:58:26;;;;;;;28.23;17.43;;;;;;;12.94;51.88;99176.84;6854518;28;20202;-69
2021/11/15 18:01:51;;;;;;;26.37;18.23;;;;;;;12.90;51.74;99199.09;6879322;28;20240;-68
2021/11/15 18:05:13;;;;;;;27.70;18.30;;;;;;;12.92;52.07;99199.75;6877343;28;20282;-68
2021/11/15 18:08:35;;;;;;;27.37;17.60;;;;;;;12.95;51.60;99192.06;6878562;28;20201;-68
2021/11/15 18:11:59;;;;;;;26.90;17.57;;;;;;;12.98;52.00;99197.03;6866201;28;20213;-68
2021/11/15 18:15:24;;;;;;;25.03;18.37;;;;;;;13.07;51.97;99239.09;6838478;28;20214;-67
2021/11/15 18:18:46;;;;;;;30.17;19.17;;;;;;;12.93;52.30;99234.69;6838784;28;20209;-68
2021/11/15 18:22:09;;;;;;;30.47;18.50;;;;;;;12.72;52.36;99177.28;6844317;28;20343;-70
2021/11/15 18:25:32;;;;;;;25.03;18.13;;;;;;;12.99;52.00;99211.44;6869747;28;20216;-69
2021/11/15 18:28:56;;;;;;;27.27;17.37;;;;;;;13.01;52.35;99245.38;6876798;28;20269;-69
2021/11/15 18:32:18;;;;;;;31.60;20.13;;;;;;;12.20;54.13;99253.81;6878467;28;20193;-70
2021/11/15 18:35:40;;;;;;;27.87;18.83;;;;;;;12.59;52.57;99205.19;6873086;28;20231;-69
2021/11/15 18:39:04;;;;;;;28.77;19.70;;;;;;;12.16;53.83;99194.94;6838656;28;20206;-69
2021/11/15 18:42:26;;;;;;;31.57;19.07;;;;;;;12.17;54.62;99250.69;6852771;28;20249;-68
2021/11/15 18:45:50;;;;;;;27.83;19.43;;;;;;;11.99;54.58;99251.22;6847334;28;20230;-69
2021/11/15 18:49:13;;;;;;;30.43;18.97;;;;;;;12.05;54.95;99236.91;6865687;28;20207;-65
2021/11/15 18:52:36;;;;;;;28.80;19.10;;;;;;;12.65;54.25;99252.19;6867167;28;20280;-69
2021/11/15 18:55:58;;;;;;;26.43;18.67;;;;;;;12.36;54.18;99250.72;6870877;28;20205;-69
2021/11/15 18:59:21;;;;;;;29.03;19.13;;;;;;;12.35;54.34;99238.25;6874593;28;20243;-70
2021/11/15 19:02:45;;;;;;;27.63;17.70;;;;;;;12.67;53.75;99239.28;6875255;28;20243;-69
2021/11/15 19:06:07;;;;;;;28.33;18.80;;;;;;;12.32;54.32;99248.63;6867628;28;20257;-69
2021/11/15 19:09:31;;;;;;;30.03;20.43;;;;;;;11.90;55.08;99201.13;6875528;28;20286;-69
2021/11/15 19:12:56;;;;;;;28.00;19.17;;;;;;;11.91;56.52;99259.53;6874642;28;20208;-69
2021/11/15 19:16:21;;;;;;;32.73;20.57;;;;;;;11.62;55.93;99186.09;6856478;28;20216;-71
2021/11/15 19:19:46;;;;;;;30.80;20.70;;;;;;;12.30;55.07;99254.25;6838128;28;20220;-71
2021/11/15 19:23:08;;;;;;;29.90;20.27;;;;;;;12.63;53.63;99227.25;6841882;28;20225;-70
2021/11/15 19:26:31;;;;;;;28.67;19.40;;;;;;;12.70;53.39;99245.13;6837919;28;20205;-67
2021/11/15 19:29:53;;;;;;;29.73;19.33;;;;;;;12.86;53.15;99249.31;6837781;28;20213;-69
2021/11/15 19:33:15;;;;;;;28.60;19.57;;;;;;;12.91;52.78;99244.06;6838649;28;20566;-69
2021/11/15 19:36:40;;;;;;;30.60;19.53;;;;;;;12.88;52.51;99237.22;6837455;28;20229;-69
2021/11/15 19:40:03;;;;;;;30.37;20.20;;;;;;;12.54;53.86;99252.81;6844968;28;20213;-71
2021/11/15 19:43:25;;;;;;;28.57;19.77;;;;;;;12.79;53.70;99253.84;6855763;28;20275;-72
2021/11/15 19:46:48;;;;;;;27.10;18.63;;;;;;;12.82;53.70;99242.63;6874063;28;20809;-70
2021/11/15 19:50:10;;;;;;;27.03;19.53;;;;;;;12.92;53.90;99253.88;6871527;28;20220;-71
2021/11/15 19:53:34;;;;;;;28.70;20.33;;;;;;;12.92;53.36;99241.16;6875089;28;20661;-71
2021/11/15 19:56:56;;;;;;;32.53;20.67;;;;;;;12.69;53.50;99207.47;6879860;28;20561;-72
2021/11/15 20:00:21;;;;;;;27.00;18.53;;;;;;;13.00;53.19;99253.69;6867427;28;20612;-71
2021/11/15 20:03:43;;;;;;;30.67;18.83;;;;;;;12.99;53.00;99255.53;6883017;28;20236;-71
2021/11/15 20:07:08;;;;;;;27.37;18.60;;;;;;;12.53;53.81;99252.00;6863682;28;20221;-71
2021/11/15 20:10:31;;;;;;;30.40;20.00;;;;;;;12.86;53.31;99254.72;6852091;28;20211;-70
2021/11/15 20:13:53;;;;;;;27.40;18.97;;;;;;;13.13;53.18;99259.09;6863409;28;20582;-68
2021/11/15 20:17:15;;;;;;;28.07;18.20;;;;;;;13.04;53.42;99274.69;6862107;28;20659;-72